Tyonek, AK

10:28 AM AKDT on July 04, 2015 (GMT -0800)
McGahan | | Change Station
CLOSE
Current Station
Personal Weather Station
Location: Nikiski, AK
Elevation: 159 ft
Nearby Weather Stations

Elev 159 ft 60.73 °N, 151.30 °W | Updated 2 seconds ago

Overcast
Overcast
60.0 °F
Feels Like 60.0 °F
N
1.2
Wind Variable Wind from NE
Gusts 1.2 mph

Today
High -- | Low -- °F
--% Chance of Precip.
Yesterday
High -- | Low -- °F
Precip. -- in
4:44 AM 11:36 PM
Waning Gibbous, 91% visible
Pressure 30.12 in
Visibility 10.0 miles
Clouds Overcast 8000 ft
Dew Point 52 °F
Humidity 74%
Rainfall 0.00 in
Snow Depth Not available.
UV 0.6 out of 12
Pollen Not available.
Air Quality Not available.
Flu Activity Not available.
METAR PAEN 041753Z 11007KT 10SM OVC080 16/08 A3012 RMK AO2 SLP200 T01560083 10156 20111 52002

More Conditions Fewer Conditions

Pressure 30.12 in
Visibility 10.0 miles
Clouds Overcast 8000 ft
Dew Point 52 °F
Humidity 74%
Rainfall 0.00 in
Snow Depth Not available.
UV 0.6 out of 12
Pollen Not available.
Air Quality Not available.
Flu Activity Not available.
METAR PAEN 041753Z 11007KT 10SM OVC080 16/08 A3012 RMK AO2 SLP200 T01560083 10156 20111 52002

More Conditions Fewer Conditions

10-Day Weather Forecast

×

Almanac

Astronomy

Jul. 04, 2015 Rise Set
Actual Time
Civil Twilight
Nautical Twilight
Astronomical Twilight
Moon
Length of Visible Light
Length of Day
Tomorrow will be .
, % of the Moon is Illuminated

Today's Extremes

State Highs State Lows

Community

WunderPhotos

Upload Photos

1,835,032 photos uploaded!

WunderBlogs® & News

Nearby

Air Quality

  Air Quality AQ Index Pollutant
Not available.

Snow Depth

Station Depth Elevation

Earthquake Activity

City Distance Mag. Time & Date
Minimum magnitude displayed is 2.5.

Coastal Water Temperatures

Place Temperature

Stations

Nearby Weather Stations

Station Location Temp. Windchill Dew Point Humidity Wind Precip. Elev Updated Type